Terminal Aerodrome Forecast
Issued by NWS Sioux Falls, SD

Home | Current Version | Previous Version | Graphics & Text | Print | Product List | Glossary Off
Versions: 1 2 3 4 5 6 7 8 9 10 11 12 13 14

000
FTUS43 KFSD 192324
TAFHON
TAF
KHON 192324Z 2000/2024 16009KT 2SM BR OVC002
     FM200300 15009KT 1SM -DZ BR OVC003
     FM201500 15009KT 2SM -DZ BR OVC003
     FM201900 15008KT 4SM -DZ BR OVC008=

USA.gov is the U.S. government's official web portal to all federal, state and local government web resources and services.